Tropical Cyclones
[Index]
Main Index Home Page Stock Weather Photos Extreme Storms Discussion Storm News and Storm Chasing Reports Tropical Cyclones / Hurricanes / Typhoons Weather Data and Links Wild Fires / Bushfires Weather Observation Techniques Weather Picture Catalogue Tornado Pictures and Reports Stock Video Footage and DVDs for sale
Season 2002-2003 Tropical Cyclone BOURA Track Map
Season 2002-2003 Summaries (Operational Data): [AU] [SIO] [SPAC] [SH]
<<- Previous TC | 2002-2003 Season | Next TC ->>

click for intensity scale information  Lat/long Grid: Show Hide

 Date Labels: Show Hide

Operational Tropical Cyclone Data : JTWC Advisories

Name: BOURA
Number: 0303

15 Nov 2002 06:00 UTC to 23 Nov 2002 12:00 UTC

    date/time    lat    long     hPa   cat  kts
2002-11-15 06    8.3    76.8     995    1    35          
2002-11-15 12    8.7    76.1     994    1    35          
2002-11-15 18    9.0    75.1     994    1    35          
2002-11-16 00   10.0    74.2     994    1    35          
2002-11-16 06   10.4    73.3     994    1    35          
2002-11-16 12   10.8    72.4     994    1    35          
2002-11-16 18   11.1    71.7     993    1    35          
2002-11-17 00   11.9    70.4     987    1    45          
2002-11-17 06   12.2    69.4     975    2    60          
2002-11-17 12   12.6    68.8     975    2    60          
2002-11-17 18   13.0    68.2     975    2    60          
2002-11-18 00   13.5    67.3     968    3    65          
2002-11-18 06   13.5    67.1     968    3    65          
2002-11-18 12   13.4    66.0     968    3    65          
2002-11-18 18   13.4    64.7     972    2    60          
2002-11-19 00   13.5    64.0     972    2    60          
2002-11-19 06   13.3    63.0     976    2    55          
2002-11-19 12   14.1    62.2     976    2    55          
2002-11-19 18   14.7    61.0     976    2    55          
2002-11-20 00   14.9    60.0     978    2    55          
2002-11-20 06   15.2    59.5     978    2    55          
2002-11-20 12   15.5    58.2     978    2    55          
2002-11-20 18   15.5    57.6     980    2    50          
2002-11-21 00   15.5    56.7     980    2    50          
2002-11-21 06   15.2    56.2     984    2    50          
2002-11-21 12   14.6    55.4     988    1    45          
2002-11-21 18   14.1    54.3     990    1    40          
2002-11-22 00   13.3    54.6     997         30          
2002-11-22 06   13.1    53.8     998         30          
2002-11-22 12   12.9    52.9     999         30          
2002-11-22 18   12.2    52.3    1000         25          
2002-11-23 00   11.6    51.9    1000         25          
2002-11-23 06   10.8    51.2    1002         25          
2002-11-23 12   10.8    51.2    1003         25          
Winds are 10-min average.

Tropical cyclone tracks developed by Michael Bath using operational warnings and advisories and Google Maps.


[Australian Severe Weather index] [Copyright Notice] [Email Contacts] [Search This Site] [Privacy Policy]
Document: tropical_cyclone_boura.htm Updated: 2 May 2017